sensor_id;sensor_type;location;lat;lon;timestamp;P1;durP1;ratioP1;P2;durP2;ratioP2
71965;SDS011;59836;52.132;5.442;2022-10-30T00:01:43;14.27;;;7.03;;
71965;SDS011;59836;52.132;5.442;2022-10-30T00:04:09;11.68;;;6.38;;
71965;SDS011;59836;52.132;5.442;2022-10-30T00:06:42;13.30;;;6.87;;
71965;SDS011;59836;52.132;5.442;2022-10-30T00:09:09;12.15;;;6.65;;
71965;SDS011;59836;52.132;5.442;2022-10-30T00:14:24;11.52;;;7.00;;
71965;SDS011;59836;52.132;5.442;2022-10-30T00:16:50;14.75;;;6.60;;
71965;SDS011;59836;52.132;5.442;2022-10-30T00:19:17;14.53;;;6.70;;
71965;SDS011;59836;52.132;5.442;2022-10-30T00:21:43;14.77;;;6.65;;
71965;SDS011;59836;52.132;5.442;2022-10-30T00:24:10;13.90;;;6.38;;
71965;SDS011;59836;52.132;5.442;2022-10-30T00:26:51;13.18;;;6.50;;
71965;SDS011;59836;52.132;5.442;2022-10-30T00:29:24;10.52;;;6.60;;
71965;SDS011;59836;52.132;5.442;2022-10-30T00:31:51;12.17;;;6.80;;
71965;SDS011;59836;52.132;5.442;2022-10-30T00:34:18;14.95;;;6.82;;
71965;SDS011;59836;52.132;5.442;2022-10-30T00:36:45;13.43;;;6.28;;
71965;SDS011;59836;52.132;5.442;2022-10-30T00:39:26;9.40;;;5.63;;
71965;SDS011;59836;52.132;5.442;2022-10-30T00:44:41;10.07;;;6.40;;
71965;SDS011;59836;52.132;5.442;2022-10-30T00:47:17;11.90;;;6.72;;
71965;SDS011;59836;52.132;5.442;2022-10-30T00:49:50;11.52;;;6.10;;
71965;SDS011;59836;52.132;5.442;2022-10-30T00:52:23;13.13;;;6.50;;
71965;SDS011;59836;52.132;5.442;2022-10-30T00:55:01;12.00;;;5.70;;
71965;SDS011;59836;52.132;5.442;2022-10-30T00:57:40;12.87;;;6.67;;
71965;SDS011;59836;52.132;5.442;2022-10-30T01:00:08;10.25;;;6.10;;
71965;SDS011;59836;52.132;5.442;2022-10-30T01:02:36;12.30;;;5.68;;
71965;SDS011;59836;52.132;5.442;2022-10-30T01:05:17;11.40;;;6.25;;
71965;SDS011;59836;52.132;5.442;2022-10-30T01:07:46;12.15;;;6.20;;
71965;SDS011;59836;52.132;5.442;2022-10-30T01:10:20;13.17;;;6.23;;
71965;SDS011;59836;52.132;5.442;2022-10-30T01:12:50;11.80;;;6.50;;
71965;SDS011;59836;52.132;5.442;2022-10-30T01:18:25;13.88;;;6.20;;
71965;SDS011;59836;52.132;5.442;2022-10-30T01:24:01;11.47;;;6.17;;
71965;SDS011;59836;52.132;5.442;2022-10-30T01:32:51;12.57;;;6.60;;
71965;SDS011;59836;52.132;5.442;2022-10-30T01:35:43;10.65;;;6.38;;
71965;SDS011;59836;52.132;5.442;2022-10-30T01:38:16;10.63;;;6.90;;
71965;SDS011;59836;52.132;5.442;2022-10-30T01:40:51;15.55;;;7.25;;
71965;SDS011;59836;52.132;5.442;2022-10-30T01:43:31;12.77;;;6.65;;
71965;SDS011;59836;52.132;5.442;2022-10-30T01:52:26;10.67;;;6.07;;
71965;SDS011;59836;52.132;5.442;2022-10-30T01:55:21;11.35;;;5.80;;
71965;SDS011;59836;52.132;5.442;2022-10-30T01:57:59;11.65;;;6.10;;
71965;SDS011;59836;52.132;5.442;2022-10-30T02:00:33;10.43;;;6.07;;
71965;SDS011;59836;52.132;5.442;2022-10-30T02:03:05;16.40;;;6.65;;
71965;SDS011;59836;52.132;5.442;2022-10-30T02:08:22;12.68;;;6.55;;
71965;SDS011;59836;52.132;5.442;2022-10-30T02:10:56;12.35;;;6.78;;
71965;SDS011;59836;52.132;5.442;2022-10-30T02:13:34;13.07;;;5.97;;
71965;SDS011;59836;52.132;5.442;2022-10-30T02:18:40;9.90;;;6.33;;
71965;SDS011;59836;52.132;5.442;2022-10-30T02:23:40;14.63;;;7.03;;
71965;SDS011;59836;52.132;5.442;2022-10-30T02:26:09;11.10;;;6.25;;
71965;SDS011;59836;52.132;5.442;2022-10-30T02:28:44;12.02;;;6.70;;
71965;SDS011;59836;52.132;5.442;2022-10-30T02:36:38;14.77;;;6.30;;
71965;SDS011;59836;52.132;5.442;2022-10-30T02:39:16;9.63;;;6.15;;
71965;SDS011;59836;52.132;5.442;2022-10-30T02:41:48;15.13;;;6.55;;
71965;SDS011;59836;52.132;5.442;2022-10-30T02:44:16;14.40;;;6.10;;
71965;SDS011;59836;52.132;5.442;2022-10-30T02:49:38;11.32;;;6.25;;
71965;SDS011;59836;52.132;5.442;2022-10-30T02:52:12;12.85;;;6.68;;
71965;SDS011;59836;52.132;5.442;2022-10-30T02:54:38;12.55;;;6.40;;
71965;SDS011;59836;52.132;5.442;2022-10-30T02:57:08;15.33;;;7.07;;
71965;SDS011;59836;52.132;5.442;2022-10-30T02:59:39;13.00;;;6.70;;
71965;SDS011;59836;52.132;5.442;2022-10-30T03:02:05;10.95;;;5.72;;
71965;SDS011;59836;52.132;5.442;2022-10-30T03:04:32;11.85;;;5.78;;
71965;SDS011;59836;52.132;5.442;2022-10-30T03:06:58;10.88;;;6.30;;
71965;SDS011;59836;52.132;5.442;2022-10-30T03:09:25;9.97;;;6.27;;
71965;SDS011;59836;52.132;5.442;2022-10-30T03:11:52;10.40;;;6.38;;
71965;SDS011;59836;52.132;5.442;2022-10-30T03:14:18;13.15;;;5.65;;
71965;SDS011;59836;52.132;5.442;2022-10-30T03:16:45;15.25;;;6.88;;
71965;SDS011;59836;52.132;5.442;2022-10-30T03:19:11;10.60;;;6.28;;
71965;SDS011;59836;52.132;5.442;2022-10-30T03:21:45;9.30;;;6.17;;
71965;SDS011;59836;52.132;5.442;2022-10-30T03:24:12;13.75;;;6.03;;
71965;SDS011;59836;52.132;5.442;2022-10-30T03:26:38;11.32;;;6.35;;
71965;SDS011;59836;52.132;5.442;2022-10-30T03:29:05;13.57;;;6.53;;
71965;SDS011;59836;52.132;5.442;2022-10-30T03:31:33;13.32;;;6.68;;
71965;SDS011;59836;52.132;5.442;2022-10-30T03:34:09;13.47;;;6.50;;
71965;SDS011;59836;52.132;5.442;2022-10-30T03:36:36;9.45;;;5.95;;
71965;SDS011;59836;52.132;5.442;2022-10-30T03:39:06;11.20;;;6.32;;
71965;SDS011;59836;52.132;5.442;2022-10-30T03:41:38;11.88;;;6.10;;
71965;SDS011;59836;52.132;5.442;2022-10-30T03:44:04;10.13;;;6.38;;
71965;SDS011;59836;52.132;5.442;2022-10-30T03:46:30;15.33;;;7.07;;
71965;SDS011;59836;52.132;5.442;2022-10-30T03:48:58;11.73;;;5.95;;
71965;SDS011;59836;52.132;5.442;2022-10-30T03:51:24;14.75;;;7.43;;
71965;SDS011;59836;52.132;5.442;2022-10-30T03:53:53;13.57;;;6.97;;
71965;SDS011;59836;52.132;5.442;2022-10-30T03:58:56;14.93;;;6.80;;
71965;SDS011;59836;52.132;5.442;2022-10-30T04:01:24;10.90;;;6.55;;
71965;SDS011;59836;52.132;5.442;2022-10-30T04:03:51;10.40;;;5.68;;
71965;SDS011;59836;52.132;5.442;2022-10-30T04:06:17;12.13;;;6.68;;
71965;SDS011;59836;52.132;5.442;2022-10-30T04:08:53;12.40;;;6.93;;
71965;SDS011;59836;52.132;5.442;2022-10-30T04:11:21;12.60;;;6.70;;
71965;SDS011;59836;52.132;5.442;2022-10-30T04:13:47;12.40;;;7.07;;
71965;SDS011;59836;52.132;5.442;2022-10-30T04:16:13;10.50;;;6.50;;
71965;SDS011;59836;52.132;5.442;2022-10-30T04:18:40;13.02;;;6.72;;
71965;SDS011;59836;52.132;5.442;2022-10-30T04:21:06;9.85;;;6.57;;
71965;SDS011;59836;52.132;5.442;2022-10-30T04:23:33;13.80;;;6.87;;
71965;SDS011;59836;52.132;5.442;2022-10-30T04:26:18;12.13;;;6.70;;
71965;SDS011;59836;52.132;5.442;2022-10-30T04:28:57;12.93;;;6.95;;
71965;SDS011;59836;52.132;5.442;2022-10-30T04:31:23;12.23;;;6.85;;
71965;SDS011;59836;52.132;5.442;2022-10-30T04:33:49;13.80;;;6.75;;
71965;SDS011;59836;52.132;5.442;2022-10-30T04:36:18;13.20;;;7.10;;
71965;SDS011;59836;52.132;5.442;2022-10-30T04:38:49;12.52;;;6.80;;
71965;SDS011;59836;52.132;5.442;2022-10-30T04:44:06;14.70;;;7.85;;
71965;SDS011;59836;52.132;5.442;2022-10-30T04:46:40;11.05;;;6.20;;
71965;SDS011;59836;52.132;5.442;2022-10-30T04:49:06;16.30;;;7.40;;
71965;SDS011;59836;52.132;5.442;2022-10-30T04:51:41;14.07;;;6.57;;
71965;SDS011;59836;52.132;5.442;2022-10-30T04:54:07;13.35;;;6.90;;
71965;SDS011;59836;52.132;5.442;2022-10-30T04:56:34;11.82;;;6.88;;
71965;SDS011;59836;52.132;5.442;2022-10-30T04:59:12;14.30;;;6.65;;
71965;SDS011;59836;52.132;5.442;2022-10-30T05:01:49;15.23;;;7.07;;
71965;SDS011;59836;52.132;5.442;2022-10-30T05:04:16;11.05;;;6.63;;
71965;SDS011;59836;52.132;5.442;2022-10-30T05:06:42;11.65;;;6.95;;
71965;SDS011;59836;52.132;5.442;2022-10-30T05:09:17;12.05;;;7.30;;
71965;SDS011;59836;52.132;5.442;2022-10-30T05:14:34;14.20;;;7.47;;
71965;SDS011;59836;52.132;5.442;2022-10-30T05:20:26;12.40;;;7.10;;
71965;SDS011;59836;52.132;5.442;2022-10-30T05:22:55;14.80;;;6.65;;
71965;SDS011;59836;52.132;5.442;2022-10-30T05:25:24;9.48;;;6.32;;
71965;SDS011;59836;52.132;5.442;2022-10-30T05:27:56;10.90;;;6.87;;
71965;SDS011;59836;52.132;5.442;2022-10-30T05:30:29;10.98;;;6.55;;
71965;SDS011;59836;52.132;5.442;2022-10-30T05:33:01;11.55;;;6.05;;
71965;SDS011;59836;52.132;5.442;2022-10-30T05:35:30;13.30;;;6.93;;
71965;SDS011;59836;52.132;5.442;2022-10-30T05:37:58;13.90;;;6.85;;
71965;SDS011;59836;52.132;5.442;2022-10-30T05:40:34;11.23;;;6.23;;
71965;SDS011;59836;52.132;5.442;2022-10-30T05:46:01;13.40;;;6.47;;
71965;SDS011;59836;52.132;5.442;2022-10-30T05:48:28;13.43;;;6.70;;
71965;SDS011;59836;52.132;5.442;2022-10-30T05:53:52;13.77;;;7.17;;
71965;SDS011;59836;52.132;5.442;2022-10-30T05:56:18;12.07;;;6.00;;
71965;SDS011;59836;52.132;5.442;2022-10-30T05:58:47;12.85;;;6.70;;
71965;SDS011;59836;52.132;5.442;2022-10-30T06:01:15;11.82;;;7.30;;
71965;SDS011;59836;52.132;5.442;2022-10-30T06:03:46;16.20;;;7.85;;
71965;SDS011;59836;52.132;5.442;2022-10-30T06:06:13;11.37;;;7.10;;
71965;SDS011;59836;52.132;5.442;2022-10-30T06:08:44;17.45;;;7.65;;
71965;SDS011;59836;52.132;5.442;2022-10-30T06:13:50;13.55;;;7.22;;
71965;SDS011;59836;52.132;5.442;2022-10-30T06:19:06;15.50;;;6.50;;
71965;SDS011;59836;52.132;5.442;2022-10-30T06:21:32;12.02;;;7.18;;
71965;SDS011;59836;52.132;5.442;2022-10-30T06:24:11;11.70;;;7.00;;
71965;SDS011;59836;52.132;5.442;2022-10-30T06:26:38;14.05;;;7.00;;
71965;SDS011;59836;52.132;5.442;2022-10-30T06:31:59;17.20;;;7.70;;
71965;SDS011;59836;52.132;5.442;2022-10-30T06:34:31;15.27;;;7.55;;
71965;SDS011;59836;52.132;5.442;2022-10-30T06:39:48;12.45;;;7.10;;
71965;SDS011;59836;52.132;5.442;2022-10-30T06:42:15;13.43;;;7.18;;
71965;SDS011;59836;52.132;5.442;2022-10-30T06:44:41;14.70;;;6.90;;
71965;SDS011;59836;52.132;5.442;2022-10-30T06:47:08;11.82;;;7.18;;
71965;SDS011;59836;52.132;5.442;2022-10-30T06:49:36;16.10;;;7.15;;
71965;SDS011;59836;52.132;5.442;2022-10-30T06:52:02;12.77;;;6.63;;
71965;SDS011;59836;52.132;5.442;2022-10-30T06:57:04;13.67;;;7.00;;
71965;SDS011;59836;52.132;5.442;2022-10-30T06:59:30;11.38;;;7.05;;
71965;SDS011;59836;52.132;5.442;2022-10-30T07:01:57;14.77;;;7.00;;
71965;SDS011;59836;52.132;5.442;2022-10-30T07:04:26;11.43;;;6.55;;
71965;SDS011;59836;52.132;5.442;2022-10-30T07:09:43;17.00;;;7.90;;
71965;SDS011;59836;52.132;5.442;2022-10-30T07:12:22;11.93;;;6.60;;
71965;SDS011;59836;52.132;5.442;2022-10-30T07:15:06;10.07;;;6.50;;
71965;SDS011;59836;52.132;5.442;2022-10-30T07:20:31;13.95;;;7.47;;
71965;SDS011;59836;52.132;5.442;2022-10-30T07:23:02;14.53;;;7.13;;
71965;SDS011;59836;52.132;5.442;2022-10-30T07:28:06;15.55;;;7.55;;
71965;SDS011;59836;52.132;5.442;2022-10-30T07:30:32;11.35;;;6.80;;
71965;SDS011;59836;52.132;5.442;2022-10-30T07:33:00;15.52;;;6.90;;
71965;SDS011;59836;52.132;5.442;2022-10-30T07:35:28;14.10;;;7.17;;
71965;SDS011;59836;52.132;5.442;2022-10-30T07:38:00;13.07;;;6.85;;
71965;SDS011;59836;52.132;5.442;2022-10-30T07:40:50;13.38;;;7.00;;
71965;SDS011;59836;52.132;5.442;2022-10-30T07:43:18;13.95;;;7.53;;
71965;SDS011;59836;52.132;5.442;2022-10-30T07:45:58;12.32;;;7.78;;
71965;SDS011;59836;52.132;5.442;2022-10-30T07:48:24;14.73;;;7.30;;
71965;SDS011;59836;52.132;5.442;2022-10-30T07:50:51;12.65;;;7.78;;
71965;SDS011;59836;52.132;5.442;2022-10-30T07:53:17;14.00;;;7.65;;
71965;SDS011;59836;52.132;5.442;2022-10-30T07:55:44;14.70;;;7.95;;
71965;SDS011;59836;52.132;5.442;2022-10-30T07:58:10;12.23;;;7.10;;
71965;SDS011;59836;52.132;5.442;2022-10-30T08:00:36;16.70;;;8.80;;
71965;SDS011;59836;52.132;5.442;2022-10-30T08:03:04;19.50;;;8.38;;
71965;SDS011;59836;52.132;5.442;2022-10-30T08:05:37;14.43;;;7.43;;
71965;SDS011;59836;52.132;5.442;2022-10-30T08:08:04;13.73;;;7.80;;
71965;SDS011;59836;52.132;5.442;2022-10-30T08:10:38;15.25;;;8.15;;
71965;SDS011;59836;52.132;5.442;2022-10-30T08:13:06;17.40;;;9.13;;
71965;SDS011;59836;52.132;5.442;2022-10-30T08:15:32;18.88;;;8.77;;
71965;SDS011;59836;52.132;5.442;2022-10-30T08:17:59;17.05;;;8.25;;
71965;SDS011;59836;52.132;5.442;2022-10-30T08:20:38;16.92;;;8.25;;
71965;SDS011;59836;52.132;5.442;2022-10-30T08:25:45;15.97;;;8.23;;
71965;SDS011;59836;52.132;5.442;2022-10-30T08:28:17;17.05;;;8.98;;
71965;SDS011;59836;52.132;5.442;2022-10-30T08:33:23;15.80;;;8.13;;
71965;SDS011;59836;52.132;5.442;2022-10-30T08:35:51;14.93;;;8.02;;
71965;SDS011;59836;52.132;5.442;2022-10-30T08:38:18;14.47;;;8.40;;
71965;SDS011;59836;52.132;5.442;2022-10-30T08:40:48;15.80;;;9.00;;
71965;SDS011;59836;52.132;5.442;2022-10-30T08:43:15;13.43;;;8.10;;
71965;SDS011;59836;52.132;5.442;2022-10-30T08:45:42;20.10;;;9.00;;
71965;SDS011;59836;52.132;5.442;2022-10-30T08:48:11;15.50;;;8.10;;
71965;SDS011;59836;52.132;5.442;2022-10-30T08:50:41;14.17;;;8.10;;
71965;SDS011;59836;52.132;5.442;2022-10-30T08:53:11;13.63;;;7.88;;
71965;SDS011;59836;52.132;5.442;2022-10-30T08:55:39;17.20;;;8.60;;
71965;SDS011;59836;52.132;5.442;2022-10-30T08:58:09;15.35;;;8.27;;
71965;SDS011;59836;52.132;5.442;2022-10-30T09:00:35;15.18;;;8.68;;
71965;SDS011;59836;52.132;5.442;2022-10-30T09:03:02;16.30;;;9.10;;
71965;SDS011;59836;52.132;5.442;2022-10-30T09:08:23;13.70;;;8.57;;
71965;SDS011;59836;52.132;5.442;2022-10-30T09:10:59;15.15;;;7.90;;
71965;SDS011;59836;52.132;5.442;2022-10-30T09:13:31;14.48;;;8.20;;
71965;SDS011;59836;52.132;5.442;2022-10-30T09:15:58;14.80;;;8.10;;
71965;SDS011;59836;52.132;5.442;2022-10-30T09:18:26;16.42;;;8.65;;
71965;SDS011;59836;52.132;5.442;2022-10-30T09:20:53;17.67;;;8.63;;
71965;SDS011;59836;52.132;5.442;2022-10-30T09:23:19;19.35;;;8.43;;
71965;SDS011;59836;52.132;5.442;2022-10-30T09:25:46;17.90;;;8.77;;
71965;SDS011;59836;52.132;5.442;2022-10-30T09:28:12;18.93;;;8.80;;
71965;SDS011;59836;52.132;5.442;2022-10-30T09:30:39;16.15;;;8.55;;
71965;SDS011;59836;52.132;5.442;2022-10-30T09:33:05;16.50;;;8.60;;
71965;SDS011;59836;52.132;5.442;2022-10-30T09:35:32;16.48;;;8.88;;
71965;SDS011;59836;52.132;5.442;2022-10-30T09:38:03;15.07;;;8.73;;
71965;SDS011;59836;52.132;5.442;2022-10-30T09:50:24;15.68;;;8.55;;
71965;SDS011;59836;52.132;5.442;2022-10-30T09:59:16;17.20;;;9.02;;
71965;SDS011;59836;52.132;5.442;2022-10-30T10:05:01;12.27;;;8.52;;
71965;SDS011;59836;52.132;5.442;2022-10-30T10:07:34;14.63;;;8.43;;
71965;SDS011;59836;52.132;5.442;2022-10-30T10:10:23;16.30;;;8.90;;
71965;SDS011;59836;52.132;5.442;2022-10-30T10:12:50;14.50;;;8.73;;
71965;SDS011;59836;52.132;5.442;2022-10-30T10:15:35;16.92;;;8.88;;
71965;SDS011;59836;52.132;5.442;2022-10-30T10:18:13;22.73;;;9.38;;
71965;SDS011;59836;52.132;5.442;2022-10-30T10:20:45;17.08;;;8.13;;
71965;SDS011;59836;52.132;5.442;2022-10-30T10:23:19;17.00;;;7.87;;
71965;SDS011;59836;52.132;5.442;2022-10-30T10:25:56;19.05;;;7.75;;
71965;SDS011;59836;52.132;5.442;2022-10-30T10:28:41;18.20;;;8.52;;
71965;SDS011;59836;52.132;5.442;2022-10-30T10:31:42;15.98;;;8.77;;
71965;SDS011;59836;52.132;5.442;2022-10-30T10:40:00;14.80;;;8.55;;
71965;SDS011;59836;52.132;5.442;2022-10-30T10:45:43;19.48;;;9.13;;
71965;SDS011;59836;52.132;5.442;2022-10-30T10:51:09;18.07;;;8.40;;
71965;SDS011;59836;52.132;5.442;2022-10-30T10:56:11;15.73;;;9.23;;
71965;SDS011;59836;52.132;5.442;2022-10-30T10:58:43;16.75;;;8.90;;
71965;SDS011;59836;52.132;5.442;2022-10-30T11:01:18;19.60;;;8.70;;
71965;SDS011;59836;52.132;5.442;2022-10-30T11:06:39;20.73;;;8.77;;
71965;SDS011;59836;52.132;5.442;2022-10-30T11:09:13;16.88;;;8.57;;
71965;SDS011;59836;52.132;5.442;2022-10-30T11:11:42;20.33;;;8.88;;
71965;SDS011;59836;52.132;5.442;2022-10-30T11:14:11;14.60;;;8.98;;
71965;SDS011;59836;52.132;5.442;2022-10-30T11:16:50;17.10;;;8.67;;
71965;SDS011;59836;52.132;5.442;2022-10-30T11:19:27;15.80;;;9.20;;
71965;SDS011;59836;52.132;5.442;2022-10-30T11:21:55;16.77;;;9.00;;
71965;SDS011;59836;52.132;5.442;2022-10-30T11:24:33;18.60;;;8.65;;
71965;SDS011;59836;52.132;5.442;2022-10-30T11:29:52;16.33;;;8.50;;
71965;SDS011;59836;52.132;5.442;2022-10-30T11:32:27;13.55;;;8.05;;
71965;SDS011;59836;52.132;5.442;2022-10-30T11:35:15;17.77;;;8.38;;
71965;SDS011;59836;52.132;5.442;2022-10-30T11:37:43;16.83;;;9.13;;
71965;SDS011;59836;52.132;5.442;2022-10-30T11:42:38;15.77;;;8.47;;
71965;SDS011;59836;52.132;5.442;2022-10-30T11:45:29;19.20;;;8.70;;
71965;SDS011;59836;52.132;5.442;2022-10-30T11:47:57;13.05;;;8.05;;
71965;SDS011;59836;52.132;5.442;2022-10-30T11:50:29;15.40;;;7.90;;
71965;SDS011;59836;52.132;5.442;2022-10-30T11:53:00;17.10;;;8.07;;
71965;SDS011;59836;52.132;5.442;2022-10-30T11:55:36;19.93;;;8.23;;
71965;SDS011;59836;52.132;5.442;2022-10-30T11:58:05;16.33;;;7.72;;
71965;SDS011;59836;52.132;5.442;2022-10-30T12:00:36;15.88;;;7.70;;
71965;SDS011;59836;52.132;5.442;2022-10-30T12:03:09;14.73;;;8.15;;
71965;SDS011;59836;52.132;5.442;2022-10-30T12:06:05;13.90;;;7.57;;
71965;SDS011;59836;52.132;5.442;2022-10-30T12:08:36;19.57;;;8.47;;
71965;SDS011;59836;52.132;5.442;2022-10-30T12:11:03;16.15;;;8.25;;
71965;SDS011;59836;52.132;5.442;2022-10-30T12:13:39;20.58;;;8.48;;
71965;SDS011;59836;52.132;5.442;2022-10-30T12:16:08;20.23;;;7.55;;
71965;SDS011;59836;52.132;5.442;2022-10-30T12:18:39;18.02;;;7.55;;
71965;SDS011;59836;52.132;5.442;2022-10-30T12:21:07;20.10;;;8.43;;
71965;SDS011;59836;52.132;5.442;2022-10-30T12:23:35;16.35;;;8.05;;
71965;SDS011;59836;52.132;5.442;2022-10-30T12:26:08;19.42;;;8.05;;
71965;SDS011;59836;52.132;5.442;2022-10-30T12:28:36;16.33;;;8.02;;
71965;SDS011;59836;52.132;5.442;2022-10-30T12:33:41;14.33;;;8.30;;
71965;SDS011;59836;52.132;5.442;2022-10-30T12:36:22;18.08;;;8.52;;
71965;SDS011;59836;52.132;5.442;2022-10-30T12:38:59;16.45;;;8.30;;
71965;SDS011;59836;52.132;5.442;2022-10-30T12:41:31;14.27;;;7.30;;
71965;SDS011;59836;52.132;5.442;2022-10-30T12:44:12;20.35;;;7.35;;
71965;SDS011;59836;52.132;5.442;2022-10-30T12:49:26;15.60;;;7.10;;
71965;SDS011;59836;52.132;5.442;2022-10-30T12:55:07;15.30;;;6.97;;
71965;SDS011;59836;52.132;5.442;2022-10-30T12:58:13;16.17;;;7.57;;
71965;SDS011;59836;52.132;5.442;2022-10-30T13:01:08;15.57;;;8.00;;
71965;SDS011;59836;52.132;5.442;2022-10-30T13:03:49;19.55;;;8.40;;
71965;SDS011;59836;52.132;5.442;2022-10-30T13:06:22;14.85;;;7.45;;
71965;SDS011;59836;52.132;5.442;2022-10-30T13:14:40;15.50;;;8.40;;
71965;SDS011;59836;52.132;5.442;2022-10-30T13:17:12;15.15;;;7.90;;
71965;SDS011;59836;52.132;5.442;2022-10-30T13:19:39;21.90;;;8.38;;
71965;SDS011;59836;52.132;5.442;2022-10-30T13:22:51;16.75;;;8.23;;
71965;SDS011;59836;52.132;5.442;2022-10-30T13:27:57;16.67;;;8.93;;
71965;SDS011;59836;52.132;5.442;2022-10-30T13:30:39;14.75;;;7.53;;
71965;SDS011;59836;52.132;5.442;2022-10-30T13:44:59;19.45;;;8.43;;
71965;SDS011;59836;52.132;5.442;2022-10-30T13:52:56;16.15;;;7.88;;
71965;SDS011;59836;52.132;5.442;2022-10-30T13:55:28;18.43;;;8.70;;
71965;SDS011;59836;52.132;5.442;2022-10-30T13:58:09;18.70;;;8.80;;
71965;SDS011;59836;52.132;5.442;2022-10-30T14:06:08;18.10;;;8.15;;
71965;SDS011;59836;52.132;5.442;2022-10-30T14:11:40;17.00;;;9.50;;
71965;SDS011;59836;52.132;5.442;2022-10-30T14:16:40;18.92;;;8.93;;
71965;SDS011;59836;52.132;5.442;2022-10-30T14:19:09;19.08;;;9.23;;
71965;SDS011;59836;52.132;5.442;2022-10-30T14:21:52;15.43;;;9.00;;
71965;SDS011;59836;52.132;5.442;2022-10-30T14:37:07;18.92;;;10.52;;
71965;SDS011;59836;52.132;5.442;2022-10-30T14:39:38;24.02;;;10.02;;
71965;SDS011;59836;52.132;5.442;2022-10-30T14:42:12;18.42;;;10.38;;
71965;SDS011;59836;52.132;5.442;2022-10-30T14:45:00;19.45;;;10.70;;
71965;SDS011;59836;52.132;5.442;2022-10-30T14:47:43;15.73;;;8.23;;
71965;SDS011;59836;52.132;5.442;2022-10-30T14:53:06;20.00;;;9.15;;
71965;SDS011;59836;52.132;5.442;2022-10-30T14:58:28;19.42;;;10.18;;
71965;SDS011;59836;52.132;5.442;2022-10-30T15:03:32;24.58;;;10.13;;
71965;SDS011;59836;52.132;5.442;2022-10-30T15:17:25;15.75;;;9.80;;
71965;SDS011;59836;52.132;5.442;2022-10-30T15:19:55;16.58;;;9.13;;
71965;SDS011;59836;52.132;5.442;2022-10-30T15:22:25;21.25;;;10.15;;
71965;SDS011;59836;52.132;5.442;2022-10-30T15:24:53;16.25;;;10.23;;
71965;SDS011;59836;52.132;5.442;2022-10-30T15:27:21;17.40;;;9.67;;
71965;SDS011;59836;52.132;5.442;2022-10-30T15:29:50;22.83;;;10.23;;
71965;SDS011;59836;52.132;5.442;2022-10-30T15:32:21;22.15;;;9.73;;
71965;SDS011;59836;52.132;5.442;2022-10-30T15:34:59;17.92;;;10.68;;
71965;SDS011;59836;52.132;5.442;2022-10-30T15:37:30;17.05;;;10.13;;
71965;SDS011;59836;52.132;5.442;2022-10-30T15:40:16;19.67;;;9.80;;
71965;SDS011;59836;52.132;5.442;2022-10-30T15:42:45;22.05;;;10.73;;
71965;SDS011;59836;52.132;5.442;2022-10-30T15:45:17;20.08;;;11.35;;
71965;SDS011;59836;52.132;5.442;2022-10-30T15:47:53;19.30;;;10.55;;
71965;SDS011;59836;52.132;5.442;2022-10-30T15:50:27;19.40;;;9.77;;
71965;SDS011;59836;52.132;5.442;2022-10-30T15:52:53;17.50;;;10.10;;
71965;SDS011;59836;52.132;5.442;2022-10-30T15:55:23;17.27;;;9.52;;
71965;SDS011;59836;52.132;5.442;2022-10-30T15:57:53;17.75;;;9.50;;
71965;SDS011;59836;52.132;5.442;2022-10-30T16:00:38;19.23;;;9.77;;
71965;SDS011;59836;52.132;5.442;2022-10-30T16:03:06;14.32;;;8.82;;
71965;SDS011;59836;52.132;5.442;2022-10-30T16:05:41;19.17;;;8.93;;
71965;SDS011;59836;52.132;5.442;2022-10-30T16:08:09;19.42;;;9.60;;
71965;SDS011;59836;52.132;5.442;2022-10-30T16:10:40;18.38;;;8.50;;
71965;SDS011;59836;52.132;5.442;2022-10-30T16:13:10;15.75;;;7.40;;
71965;SDS011;59836;52.132;5.442;2022-10-30T16:15:42;15.20;;;8.35;;
71965;SDS011;59836;52.132;5.442;2022-10-30T16:18:20;14.47;;;8.77;;
71965;SDS011;59836;52.132;5.442;2022-10-30T16:20:49;17.33;;;8.70;;
71965;SDS011;59836;52.132;5.442;2022-10-30T16:23:18;15.18;;;8.65;;
71965;SDS011;59836;52.132;5.442;2022-10-30T16:25:46;17.10;;;8.23;;
71965;SDS011;59836;52.132;5.442;2022-10-30T16:28:26;18.33;;;8.07;;
71965;SDS011;59836;52.132;5.442;2022-10-30T16:30:53;15.93;;;7.80;;
71965;SDS011;59836;52.132;5.442;2022-10-30T16:33:24;12.82;;;7.60;;
71965;SDS011;59836;52.132;5.442;2022-10-30T16:35:53;18.13;;;7.53;;
71965;SDS011;59836;52.132;5.442;2022-10-30T16:38:21;13.30;;;6.22;;
71965;SDS011;59836;52.132;5.442;2022-10-30T16:40:49;14.18;;;6.63;;
71965;SDS011;59836;52.132;5.442;2022-10-30T16:43:27;12.53;;;6.30;;
71965;SDS011;59836;52.132;5.442;2022-10-30T16:48:44;11.93;;;6.10;;
71965;SDS011;59836;52.132;5.442;2022-10-30T16:51:17;11.40;;;6.03;;
71965;SDS011;59836;52.132;5.442;2022-10-30T16:53:47;13.90;;;5.63;;
71965;SDS011;59836;52.132;5.442;2022-10-30T16:56:20;14.13;;;6.03;;
71965;SDS011;59836;52.132;5.442;2022-10-30T16:58:49;14.40;;;5.70;;
71965;SDS011;59836;52.132;5.442;2022-10-30T17:01:18;14.43;;;5.93;;
71965;SDS011;59836;52.132;5.442;2022-10-30T17:03:49;14.85;;;6.15;;
71965;SDS011;59836;52.132;5.442;2022-10-30T17:06:26;12.18;;;5.68;;
71965;SDS011;59836;52.132;5.442;2022-10-30T17:08:56;12.43;;;5.93;;
71965;SDS011;59836;52.132;5.442;2022-10-30T17:11:32;9.73;;;5.47;;
71965;SDS011;59836;52.132;5.442;2022-10-30T17:14:02;8.75;;;5.00;;
71965;SDS011;59836;52.132;5.442;2022-10-30T17:16:40;9.98;;;5.35;;
71965;SDS011;59836;52.132;5.442;2022-10-30T17:19:36;10.00;;;4.55;;
71965;SDS011;59836;52.132;5.442;2022-10-30T17:22:07;9.40;;;3.80;;
71965;SDS011;59836;52.132;5.442;2022-10-30T17:24:38;8.27;;;3.78;;
71965;SDS011;59836;52.132;5.442;2022-10-30T17:27:06;9.48;;;3.95;;
71965;SDS011;59836;52.132;5.442;2022-10-30T17:29:51;6.65;;;2.85;;
71965;SDS011;59836;52.132;5.442;2022-10-30T17:34:45;10.47;;;3.67;;
71965;SDS011;59836;52.132;5.442;2022-10-30T17:37:12;8.40;;;3.97;;
71965;SDS011;59836;52.132;5.442;2022-10-30T17:39:38;10.05;;;3.92;;
71965;SDS011;59836;52.132;5.442;2022-10-30T17:42:05;8.32;;;3.95;;
71965;SDS011;59836;52.132;5.442;2022-10-30T17:44:32;9.88;;;3.72;;
71965;SDS011;59836;52.132;5.442;2022-10-30T17:47:01;8.53;;;3.80;;
71965;SDS011;59836;52.132;5.442;2022-10-30T17:49:39;6.97;;;3.05;;
71965;SDS011;59836;52.132;5.442;2022-10-30T17:52:05;9.32;;;3.78;;
71965;SDS011;59836;52.132;5.442;2022-10-30T17:54:35;6.85;;;3.70;;
71965;SDS011;59836;52.132;5.442;2022-10-30T17:57:01;9.43;;;3.70;;
71965;SDS011;59836;52.132;5.442;2022-10-30T17:59:28;8.13;;;4.20;;
71965;SDS011;59836;52.132;5.442;2022-10-30T18:01:54;8.13;;;3.70;;
71965;SDS011;59836;52.132;5.442;2022-10-30T18:04:21;7.90;;;3.63;;
71965;SDS011;59836;52.132;5.442;2022-10-30T18:06:48;9.82;;;4.03;;
71965;SDS011;59836;52.132;5.442;2022-10-30T18:09:14;10.90;;;4.20;;
71965;SDS011;59836;52.132;5.442;2022-10-30T18:11:41;5.63;;;4.40;;
71965;SDS011;59836;52.132;5.442;2022-10-30T18:14:08;8.75;;;5.25;;
71965;SDS011;59836;52.132;5.442;2022-10-30T18:16:36;14.10;;;6.43;;
71965;SDS011;59836;52.132;5.442;2022-10-30T18:19:03;9.70;;;6.85;;
71965;SDS011;59836;52.132;5.442;2022-10-30T18:21:29;11.80;;;7.05;;
71965;SDS011;59836;52.132;5.442;2022-10-30T18:23:56;12.57;;;6.97;;
71965;SDS011;59836;52.132;5.442;2022-10-30T18:26:23;12.32;;;7.03;;
71965;SDS011;59836;52.132;5.442;2022-10-30T18:28:51;10.43;;;6.18;;
71965;SDS011;59836;52.132;5.442;2022-10-30T18:31:19;15.05;;;6.10;;
71965;SDS011;59836;52.132;5.442;2022-10-30T18:33:48;11.25;;;6.07;;